Time;durP1;ratioP1;P1;durP2;ratioP2;P2;SDS_P1;SDS_P2;PMS_P1;PMS_P2;Temp;Humidity;BMP_temperature;BMP_pressure;BME280_temperature;BME280_humidity;BME280_pressure;Samples;Min_cycle;Max_cycle;Signal;HPM_P1;HPM_P2
2022/11/15 00:02:08;;;;;;;23.60;19.23;;;8.40;99.90;;;;;;5110510;28;20198;-71
2022/11/15 00:04:36;;;;;;;23.50;20.37;;;8.30;99.90;;;;;;5110252;28;20202;-72
2022/11/15 00:07:03;;;;;;;22.73;19.27;;;8.30;99.90;;;;;;5112803;27;20212;-71
2022/11/15 00:09:30;;;;;;;21.57;18.73;;;8.30;99.90;;;;;;5130837;27;20228;-72
2022/11/15 00:11:56;;;;;;;22.80;19.53;;;8.30;99.90;;;;;;5130517;27;20202;-72
2022/11/15 00:14:23;;;;;;;25.67;20.60;;;8.30;99.90;;;;;;5130222;27;20227;-72
2022/11/15 00:16:50;;;;;;;23.10;19.80;;;8.30;99.90;;;;;;5113312;27;20230;-72
2022/11/15 00:19:17;;;;;;;25.33;19.93;;;8.30;99.90;;;;;;5110018;28;20297;-72
2022/11/15 00:21:45;;;;;;;23.73;19.57;;;8.30;99.90;;;;;;5119344;27;20216;-72
2022/11/15 00:24:12;;;;;;;23.00;19.90;;;8.30;99.90;;;;;;5109750;27;20683;-72
2022/11/15 00:26:39;;;;;;;24.07;19.90;;;8.30;99.90;;;;;;5118899;27;20223;-72
2022/11/15 00:29:06;;;;;;;24.33;20.30;;;8.30;99.90;;;;;;5130399;27;20296;-72
2022/11/15 00:31:33;;;;;;;24.13;20.20;;;8.30;99.90;;;;;;5134538;27;20229;-72
2022/11/15 00:34:00;;;;;;;25.37;19.83;;;8.30;99.90;;;;;;5109650;28;20206;-72
2022/11/15 00:36:27;;;;;;;24.97;20.70;;;8.30;99.90;;;;;;5109847;27;20451;-72
2022/11/15 00:38:55;;;;;;;24.27;19.57;;;8.30;99.90;;;;;;5109184;28;20324;-72
2022/11/15 00:41:22;;;;;;;23.63;20.50;;;8.30;99.90;;;;;;5109724;28;20268;-72
2022/11/15 00:43:49;;;;;;;24.87;20.23;;;8.30;99.90;;;;;;5111423;27;20349;-72
2022/11/15 00:46:16;;;;;;;25.27;20.43;;;8.40;99.90;;;;;;5109458;28;20299;-72
2022/11/15 00:48:43;;;;;;;25.03;20.83;;;8.30;99.90;;;;;;5109549;28;20317;-71
2022/11/15 00:51:09;;;;;;;25.50;19.87;;;8.30;99.90;;;;;;5109351;28;20498;-73
2022/11/15 00:53:36;;;;;;;25.63;20.10;;;8.40;99.90;;;;;;5109183;28;20664;-72
2022/11/15 00:56:05;;;;;;;22.77;19.17;;;8.40;99.90;;;;;;5112791;27;20302;-72
2022/11/15 00:58:32;;;;;;;23.77;19.40;;;8.40;99.90;;;;;;5150326;27;20274;-72
2022/11/15 01:01:07;;;;;;;24.60;20.93;;;8.40;99.90;;;;;;5149313;27;20327;-72
2022/11/15 01:03:35;;;;;;;23.67;20.33;;;8.40;99.90;;;;;;5150164;27;20201;-72
2022/11/15 01:06:02;;;;;;;25.43;19.83;;;8.30;99.90;;;;;;5150361;27;20310;-72
2022/11/15 01:08:29;;;;;;;25.67;20.47;;;8.30;99.90;;;;;;5150465;27;20672;-71
2022/11/15 01:11:00;;;;;;;24.60;20.17;;;8.30;99.90;;;;;;5145827;27;20341;-72
2022/11/15 01:13:31;;;;;;;25.03;20.37;;;8.30;99.90;;;;;;5108986;27;20309;-72
2022/11/15 01:15:58;;;;;;;25.23;20.50;;;8.40;99.90;;;;;;5108821;28;20229;-72
2022/11/15 01:18:25;;;;;;;24.83;20.87;;;8.40;99.90;;;;;;5109556;27;20230;-73
2022/11/15 01:20:52;;;;;;;24.83;20.73;;;8.40;99.90;;;;;;5111104;27;20301;-73
2022/11/15 01:23:19;;;;;;;25.10;21.40;;;8.40;99.90;;;;;;5116987;27;20234;-73
2022/11/15 01:25:46;;;;;;;25.37;21.07;;;8.40;99.90;;;;;;5108819;28;20226;-73
2022/11/15 01:28:12;;;;;;;25.70;20.43;;;8.40;99.90;;;;;;5131183;27;20293;-72
2022/11/15 01:30:41;;;;;;;25.43;21.43;;;8.40;99.90;;;;;;5128930;27;20280;-72
2022/11/15 01:33:08;;;;;;;26.13;20.10;;;8.40;99.90;;;;;;5128587;27;20616;-72
2022/11/15 01:35:38;;;;;;;26.77;20.60;;;8.40;99.90;;;;;;5129082;27;20288;-72
2022/11/15 01:38:05;;;;;;;24.87;20.07;;;8.30;99.90;;;;;;5128590;27;20688;-72
2022/11/15 01:40:32;;;;;;;24.77;19.63;;;8.30;99.90;;;;;;5129036;27;20297;-72
2022/11/15 01:42:59;;;;;;;23.70;20.27;;;8.30;99.90;;;;;;5128988;27;20292;-72
2022/11/15 01:45:26;;;;;;;24.77;20.10;;;8.20;99.90;;;;;;5128836;27;20239;-71
2022/11/15 01:47:56;;;;;;;29.17;21.43;;;8.20;99.90;;;;;;5128654;27;20683;-71
2022/11/15 01:50:29;;;;;;;25.57;20.53;;;8.30;99.90;;;;;;5129046;27;20250;-71
2022/11/15 01:52:58;;;;;;;25.33;20.03;;;8.20;99.90;;;;;;5128606;27;21080;-71
2022/11/15 01:55:28;;;;;;;27.43;20.10;;;8.30;99.90;;;;;;5128822;27;20212;-71
2022/11/15 01:57:58;;;;;;;25.30;20.40;;;8.30;99.90;;;;;;5110654;27;20313;-71
2022/11/15 02:00:25;;;;;;;25.23;19.57;;;8.30;99.90;;;;;;5107697;28;20268;-72
2022/11/15 02:02:52;;;;;;;25.60;20.33;;;8.30;99.90;;;;;;5107722;28;20263;-71
2022/11/15 02:05:20;;;;;;;24.90;20.13;;;8.30;99.90;;;;;;5108122;28;21020;-72
2022/11/15 02:07:49;;;;;;;24.83;20.27;;;8.30;99.90;;;;;;5127184;27;20610;-72
2022/11/15 02:10:20;;;;;;;22.33;19.73;;;8.30;99.90;;;;;;5107996;28;20563;-71
2022/11/15 02:12:47;;;;;;;24.37;20.10;;;8.30;99.90;;;;;;5108527;28;20233;-72
2022/11/15 02:15:14;;;;;;;23.70;19.70;;;8.30;99.90;;;;;;5107473;28;20212;-72
2022/11/15 02:17:56;;;;;;;24.13;20.83;;;8.40;99.90;;;;;;5107616;28;20222;-73
2022/11/15 02:20:55;;;;;;;24.90;19.60;;;8.40;99.90;;;;;;5123171;27;20237;-71
2022/11/15 02:23:57;;;;;;;25.50;20.10;;;8.40;99.90;;;;;;5123940;27;20285;-72
2022/11/15 02:27:12;;;;;;;26.37;20.87;;;8.40;99.90;;;;;;5112519;27;20310;-72
2022/11/15 02:30:20;;;;;;;26.20;20.57;;;8.40;99.90;;;;;;5071615;28;20240;-72
2022/11/15 02:32:53;;;;;;;24.40;20.07;;;8.40;99.90;;;;;;5090545;28;20368;-76
2022/11/15 02:35:29;;;;;;;23.10;19.20;;;8.40;99.90;;;;;;5107846;28;20652;-72
2022/11/15 02:37:59;;;;;;;23.40;19.87;;;8.40;99.90;;;;;;5108196;28;20237;-72
2022/11/15 02:40:38;;;;;;;25.73;20.27;;;8.40;99.90;;;;;;5107415;28;20212;-72
2022/11/15 02:46:01;;;;;;;26.60;21.27;;;8.40;99.90;;;;;;5107567;28;20185;-75
2022/11/15 02:48:31;;;;;;;25.60;20.83;;;8.30;99.90;;;;;;5108109;28;20402;-76
2022/11/15 02:50:58;;;;;;;23.53;19.70;;;8.30;99.90;;;;;;5107417;28;20234;-76
2022/11/15 02:53:26;;;;;;;26.03;20.23;;;8.30;99.90;;;;;;5107752;28;20289;-74
2022/11/15 02:55:54;;;;;;;23.47;19.73;;;8.20;99.90;;;;;;5107967;27;20745;-74
2022/11/15 02:58:50;;;;;;;25.63;20.20;;;8.30;99.90;;;;;;5149065;27;20315;-74
2022/11/15 03:01:29;;;;;;;23.73;18.97;;;8.30;99.90;;;;;;5148538;27;20244;-73
2022/11/15 03:04:06;;;;;;;24.07;19.33;;;8.20;99.90;;;;;;5122557;27;20276;-74
2022/11/15 03:06:39;;;;;;;23.87;19.57;;;8.20;99.90;;;;;;5107905;28;20186;-74
2022/11/15 03:09:14;;;;;;;24.80;19.73;;;8.10;99.90;;;;;;5107525;28;20186;-74
2022/11/15 03:11:46;;;;;;;23.97;19.50;;;8.10;99.90;;;;;;5107960;28;20190;-74
2022/11/15 03:14:22;;;;;;;23.60;19.83;;;8.10;99.90;;;;;;5107692;28;20274;-73
2022/11/15 03:16:58;;;;;;;25.47;20.50;;;8.10;99.90;;;;;;5123944;28;20284;-74
2022/11/15 03:19:31;;;;;;;24.70;20.30;;;8.10;99.90;;;;;;5128173;27;20253;-73
2022/11/15 03:22:00;;;;;;;25.23;20.13;;;8.10;99.90;;;;;;5121480;27;20574;-73
2022/11/15 03:24:31;;;;;;;24.17;19.50;;;8.00;99.90;;;;;;5114073;27;20665;-73
2022/11/15 03:27:01;;;;;;;25.60;20.13;;;8.00;99.90;;;;;;5119726;27;20242;-73
2022/11/15 03:29:33;;;;;;;22.20;19.17;;;8.00;99.90;;;;;;5113245;27;20647;-73
2022/11/15 03:32:04;;;;;;;24.83;18.87;;;8.00;99.90;;;;;;5129358;27;20565;-73
2022/11/15 03:34:38;;;;;;;23.47;18.87;;;8.00;99.90;;;;;;5129412;27;20290;-73
2022/11/15 03:37:06;;;;;;;22.60;18.70;;;7.90;99.90;;;;;;5129417;27;20188;-73
2022/11/15 03:39:34;;;;;;;24.17;19.00;;;8.00;99.90;;;;;;5129378;27;20233;-73
2022/11/15 03:42:12;;;;;;;24.93;19.83;;;8.00;99.90;;;;;;5129267;27;20353;-73
2022/11/15 03:44:46;;;;;;;24.73;18.90;;;8.00;99.90;;;;;;5129316;27;20193;-73
2022/11/15 03:47:18;;;;;;;25.37;19.67;;;8.00;99.90;;;;;;5112134;27;20231;-73
2022/11/15 03:49:52;;;;;;;25.03;18.70;;;8.00;99.90;;;;;;5108469;28;20318;-73
2022/11/15 03:52:20;;;;;;;24.43;18.37;;;8.00;99.90;;;;;;5108711;28;20608;-72
2022/11/15 03:54:52;;;;;;;22.37;18.87;;;8.00;99.90;;;;;;5108675;28;20337;-73
2022/11/15 03:57:19;;;;;;;22.83;18.37;;;8.00;99.90;;;;;;5133933;27;20296;-73
2022/11/15 03:59:46;;;;;;;25.13;18.77;;;8.00;99.90;;;;;;5147711;27;20977;-73
2022/11/15 04:02:13;;;;;;;23.00;18.43;;;8.00;99.90;;;;;;5120342;27;20268;-73
2022/11/15 04:04:40;;;;;;;21.63;17.77;;;8.00;99.90;;;;;;5109300;27;20293;-73
2022/11/15 04:07:08;;;;;;;23.10;18.50;;;8.00;99.90;;;;;;5109649;28;20626;-73
2022/11/15 04:10:01;;;;;;;23.57;19.30;;;7.90;99.90;;;;;;5109144;28;20235;-73
2022/11/15 04:12:30;;;;;;;23.37;18.50;;;8.00;99.90;;;;;;5119369;27;20205;-74
2022/11/15 04:15:07;;;;;;;21.20;18.67;;;7.90;99.90;;;;;;5128789;27;20276;-73
2022/11/15 04:17:35;;;;;;;24.77;18.73;;;7.90;99.90;;;;;;5129137;27;20636;-73
2022/11/15 04:25:32;;;;;;;23.83;17.83;;;7.90;99.90;;;;;;5109464;28;20224;-73
2022/11/15 04:27:59;;;;;;;22.50;18.50;;;7.80;99.90;;;;;;5109673;28;20245;-73
2022/11/15 04:30:26;;;;;;;21.83;18.43;;;7.80;99.90;;;;;;5109210;28;20298;-73
2022/11/15 04:32:53;;;;;;;20.87;17.77;;;7.80;99.90;;;;;;5109761;28;20229;-73
2022/11/15 04:35:20;;;;;;;22.40;18.03;;;7.80;99.90;;;;;;5108342;28;20306;-73
2022/11/15 04:37:47;;;;;;;22.40;18.47;;;7.80;99.90;;;;;;5109225;28;20202;-73
2022/11/15 04:40:14;;;;;;;21.40;17.93;;;7.80;99.90;;;;;;5109527;28;20211;-73
2022/11/15 04:42:42;;;;;;;21.33;17.53;;;7.80;99.90;;;;;;5109596;28;20296;-73
2022/11/15 04:45:10;;;;;;;21.33;17.63;;;7.80;99.90;;;;;;5109693;28;20206;-73
2022/11/15 04:47:37;;;;;;;20.07;16.73;;;7.80;99.90;;;;;;5109225;28;20298;-73
2022/11/15 04:50:05;;;;;;;22.67;17.43;;;7.80;99.90;;;;;;5108911;28;20633;-73
2022/11/15 04:52:31;;;;;;;19.43;16.80;;;7.80;99.90;;;;;;5109460;28;20202;-73
2022/11/15 04:55:00;;;;;;;21.33;17.13;;;7.80;99.90;;;;;;5109203;28;20298;-73
2022/11/15 04:57:27;;;;;;;22.90;18.37;;;7.80;99.90;;;;;;5114582;27;20234;-73
2022/11/15 04:59:56;;;;;;;20.57;17.07;;;7.80;99.90;;;;;;5108409;28;20333;-73
2022/11/15 05:02:23;;;;;;;21.00;16.97;;;7.80;99.90;;;;;;5108890;28;20595;-73
2022/11/15 05:04:49;;;;;;;21.47;17.33;;;7.80;99.90;;;;;;5109338;28;20546;-73
2022/11/15 05:07:16;;;;;;;21.97;16.67;;;7.80;99.90;;;;;;5108931;28;20692;-73
2022/11/15 05:09:43;;;;;;;20.80;17.00;;;7.80;99.90;;;;;;5128176;27;20205;-72
2022/11/15 05:12:11;;;;;;;20.30;17.10;;;7.90;99.90;;;;;;5129294;27;20256;-73
2022/11/15 05:14:38;;;;;;;23.10;16.90;;;7.80;99.90;;;;;;5129102;27;20842;-73
2022/11/15 05:17:05;;;;;;;19.77;16.43;;;7.80;99.90;;;;;;5129130;27;20216;-73
2022/11/15 05:19:32;;;;;;;19.00;16.63;;;7.90;99.90;;;;;;5129500;27;20225;-73
2022/11/15 05:21:58;;;;;;;19.43;17.17;;;7.90;99.90;;;;;;5128959;27;20241;-73
2022/11/15 05:24:25;;;;;;;21.47;16.67;;;7.90;99.90;;;;;;5128817;27;20304;-73
2022/11/15 05:26:52;;;;;;;19.60;16.00;;;7.90;99.90;;;;;;5138080;27;20311;-73
2022/11/15 05:29:20;;;;;;;19.20;16.60;;;7.90;99.90;;;;;;5149639;27;20328;-73
2022/11/15 05:31:47;;;;;;;20.23;15.93;;;7.90;99.90;;;;;;5149800;27;20196;-73
2022/11/15 05:34:14;;;;;;;19.10;16.50;;;7.90;99.90;;;;;;5149926;27;20300;-73
2022/11/15 05:36:44;;;;;;;18.70;16.30;;;7.90;99.90;;;;;;5149831;27;20433;-73
2022/11/15 05:39:11;;;;;;;20.87;17.20;;;7.90;99.90;;;;;;5149285;27;20232;-72
2022/11/15 05:41:42;;;;;;;23.70;16.63;;;7.90;99.90;;;;;;5149665;27;20239;-73
2022/11/15 05:44:11;;;;;;;18.30;16.13;;;7.90;99.90;;;;;;5149440;27;20887;-73
2022/11/15 05:46:41;;;;;;;20.50;17.23;;;7.90;99.90;;;;;;5149676;27;20261;-73
2022/11/15 05:49:12;;;;;;;19.83;15.93;;;7.90;99.90;;;;;;5149171;27;20204;-73
2022/11/15 05:51:40;;;;;;;21.27;15.37;;;7.90;99.90;;;;;;5149599;27;20284;-73
2022/11/15 05:54:06;;;;;;;19.30;15.90;;;7.90;99.90;;;;;;5116617;27;20296;-73
2022/11/15 05:56:33;;;;;;;19.10;15.93;;;7.90;99.90;;;;;;5120434;27;20254;-72
2022/11/15 05:59:01;;;;;;;19.97;16.67;;;8.00;99.90;;;;;;5149605;27;20236;-73
2022/11/15 06:01:28;;;;;;;19.93;16.50;;;7.90;99.90;;;;;;5148730;27;20233;-73
2022/11/15 06:03:56;;;;;;;21.17;15.77;;;7.90;99.90;;;;;;5137656;27;20198;-73
2022/11/15 06:06:23;;;;;;;20.10;16.97;;;7.90;99.90;;;;;;5106339;28;20255;-73
2022/11/15 06:08:50;;;;;;;17.70;15.37;;;8.00;99.90;;;;;;5120361;27;20292;-73
2022/11/15 06:11:17;;;;;;;19.60;16.00;;;8.00;99.90;;;;;;5128697;27;20353;-73
2022/11/15 06:13:44;;;;;;;17.27;15.37;;;7.90;99.90;;;;;;5128338;27;20292;-73
2022/11/15 06:16:11;;;;;;;19.03;15.53;;;7.90;99.90;;;;;;5127789;27;20238;-73
2022/11/15 06:18:38;;;;;;;18.40;15.40;;;7.90;99.90;;;;;;5128586;27;20707;-73
2022/11/15 06:21:07;;;;;;;20.43;16.40;;;7.90;99.90;;;;;;5128403;27;20292;-73
2022/11/15 06:23:35;;;;;;;20.80;15.77;;;7.90;99.90;;;;;;5113716;27;20233;-73
2022/11/15 06:26:03;;;;;;;17.17;15.37;;;7.90;99.90;;;;;;5110228;27;20218;-73
2022/11/15 06:28:30;;;;;;;20.17;15.07;;;7.90;99.90;;;;;;5149255;27;20236;-73
2022/11/15 06:31:02;;;;;;;19.10;15.23;;;7.90;99.90;;;;;;5148729;27;20620;-73
2022/11/15 06:33:29;;;;;;;17.23;15.33;;;7.90;99.90;;;;;;5149257;27;20189;-73
2022/11/15 06:35:56;;;;;;;19.90;16.00;;;7.80;99.90;;;;;;5148945;27;20295;-73
2022/11/15 06:38:25;;;;;;;20.30;15.77;;;7.80;99.90;;;;;;5148937;27;20205;-73
2022/11/15 06:40:51;;;;;;;20.33;15.60;;;7.80;99.90;;;;;;5148479;27;21029;-72
2022/11/15 06:43:18;;;;;;;17.53;14.77;;;7.80;99.90;;;;;;5149094;27;20753;-73
2022/11/15 06:45:45;;;;;;;18.20;15.13;;;7.70;99.90;;;;;;5148670;27;20361;-72
2022/11/15 06:48:12;;;;;;;18.50;16.10;;;7.80;99.90;;;;;;5149056;27;20262;-73
2022/11/15 06:50:39;;;;;;;19.83;15.57;;;7.80;99.90;;;;;;5111104;27;20257;-73
2022/11/15 06:53:06;;;;;;;21.33;16.03;;;7.80;99.90;;;;;;5107604;28;20511;-73
2022/11/15 06:55:34;;;;;;;18.57;15.93;;;7.80;99.90;;;;;;5107538;28;20704;-73
2022/11/15 06:58:01;;;;;;;19.13;15.73;;;7.80;99.90;;;;;;5144768;27;20292;-73
2022/11/15 07:00:27;;;;;;;18.13;15.57;;;7.80;99.90;;;;;;5147537;27;20324;-72
2022/11/15 07:02:54;;;;;;;21.37;16.07;;;7.80;99.90;;;;;;5132022;27;20299;-73
2022/11/15 07:05:21;;;;;;;18.57;15.87;;;7.80;99.90;;;;;;5132116;27;20244;-73
2022/11/15 07:07:53;;;;;;;19.47;15.40;;;7.80;99.90;;;;;;5132211;27;20292;-73
2022/11/15 07:10:20;;;;;;;20.70;15.27;;;7.80;99.90;;;;;;5132130;27;20201;-73
2022/11/15 07:12:49;;;;;;;18.20;15.67;;;7.80;99.90;;;;;;5131856;27;20207;-73
2022/11/15 07:15:16;;;;;;;20.87;16.57;;;7.80;99.90;;;;;;5131602;27;20212;-73
2022/11/15 07:17:43;;;;;;;18.63;15.70;;;7.90;99.90;;;;;;5131906;27;20255;-73
2022/11/15 07:20:11;;;;;;;19.73;15.80;;;7.90;99.90;;;;;;5131935;27;20783;-73
2022/11/15 07:22:38;;;;;;;19.53;15.30;;;7.90;99.90;;;;;;5124998;27;20293;-73
2022/11/15 07:25:05;;;;;;;18.37;16.20;;;7.90;99.90;;;;;;5111063;28;20304;-72
2022/11/15 07:27:32;;;;;;;19.33;15.53;;;7.90;99.90;;;;;;5139992;27;20744;-72
2022/11/15 07:30:00;;;;;;;16.50;14.50;;;7.90;99.90;;;;;;5151910;27;20742;-72
2022/11/15 07:32:27;;;;;;;21.17;15.90;;;8.00;99.90;;;;;;5152272;27;20251;-72
2022/11/15 07:34:54;;;;;;;17.57;15.27;;;8.00;99.90;;;;;;5151809;27;20295;-72
2022/11/15 07:37:21;;;;;;;17.40;15.50;;;8.10;99.90;;;;;;5152710;27;20308;-72
2022/11/15 07:39:48;;;;;;;18.17;15.00;;;8.10;99.90;;;;;;5152221;27;20697;-72
2022/11/15 07:45:00;;;;;;;17.80;15.50;;;8.20;99.90;;;;;;5135694;27;20308;-73
2022/11/15 07:47:29;;;;;;;16.83;14.73;;;8.30;99.90;;;;;;5110554;28;20668;-73
2022/11/15 07:49:56;;;;;;;18.10;15.47;;;8.40;99.90;;;;;;5110250;28;20667;-73
2022/11/15 07:52:23;;;;;;;16.93;14.73;;;8.40;99.90;;;;;;5110708;28;20288;-73
2022/11/15 07:54:50;;;;;;;17.83;15.87;;;8.50;99.90;;;;;;5110148;28;20210;-73
2022/11/15 07:57:17;;;;;;;18.10;15.20;;;8.50;99.90;;;;;;5125020;27;20201;-73
2022/11/15 07:59:44;;;;;;;17.70;15.77;;;8.50;99.90;;;;;;5130505;27;20249;-73
2022/11/15 08:02:12;;;;;;;17.70;15.10;;;8.60;99.90;;;;;;5112167;27;20291;-73
2022/11/15 08:04:39;;;;;;;17.57;15.50;;;8.60;99.90;;;;;;5115299;27;20241;-73
2022/11/15 08:07:06;;;;;;;18.00;15.93;;;8.70;99.90;;;;;;5130906;27;20264;-73
2022/11/15 08:09:32;;;;;;;17.93;15.03;;;8.70;99.90;;;;;;5130205;27;20257;-73
2022/11/15 08:11:59;;;;;;;19.27;15.47;;;8.80;99.90;;;;;;5130337;27;20212;-73
2022/11/15 08:14:26;;;;;;;19.23;15.60;;;8.80;99.90;;;;;;5130790;27;20328;-72
2022/11/15 08:16:53;;;;;;;18.20;15.47;;;8.90;99.90;;;;;;5130626;27;20297;-72
2022/11/15 08:19:21;;;;;;;18.03;15.30;;;9.00;99.90;;;;;;5130495;27;21045;-72
2022/11/15 08:21:48;;;;;;;16.87;15.07;;;9.10;99.90;;;;;;5130514;27;20237;-72
2022/11/15 08:24:16;;;;;;;16.87;14.73;;;9.10;99.90;;;;;;5109822;27;20218;-73
2022/11/15 08:26:42;;;;;;;17.43;15.07;;;9.10;99.90;;;;;;5124577;27;20304;-72
2022/11/15 08:29:09;;;;;;;17.70;15.03;;;9.20;99.90;;;;;;5151204;27;20308;-72
2022/11/15 08:31:37;;;;;;;16.83;14.97;;;9.30;99.90;;;;;;5151008;27;20215;-72
2022/11/15 08:34:04;;;;;;;16.37;14.60;;;9.30;99.90;;;;;;5151107;27;20240;-72
2022/11/15 08:36:33;;;;;;;15.50;13.37;;;9.40;99.90;;;;;;5151183;27;20326;-72
2022/11/15 08:39:00;;;;;;;15.67;14.07;;;9.40;99.90;;;;;;5151017;27;20291;-72
2022/11/15 08:41:30;;;;;;;15.70;14.03;;;9.50;99.90;;;;;;5142638;27;20254;-73
2022/11/15 08:43:57;;;;;;;15.43;13.83;;;9.50;99.90;;;;;;5126483;27;20288;-73
2022/11/15 08:46:24;;;;;;;16.60;14.90;;;9.50;99.90;;;;;;5129657;27;20229;-73
2022/11/15 08:48:51;;;;;;;16.17;14.47;;;9.60;99.90;;;;;;5129707;27;20212;-73
2022/11/15 08:51:18;;;;;;;16.10;13.63;;;9.70;99.90;;;;;;5130148;27;20312;-73
2022/11/15 08:53:46;;;;;;;14.73;13.33;;;9.70;99.90;;;;;;5130199;27;20256;-73
2022/11/15 08:56:15;;;;;;;15.70;13.43;;;9.80;99.90;;;;;;5131847;27;20701;-73
2022/11/15 08:58:42;;;;;;;15.67;13.67;;;9.80;99.90;;;;;;5130063;27;20789;-73
2022/11/15 09:01:17;;;;;;;15.30;12.70;;;9.90;99.90;;;;;;5128969;27;20248;-73
2022/11/15 09:03:44;;;;;;;14.50;13.10;;;10.00;99.90;;;;;;5130013;27;20192;-73
2022/11/15 09:06:11;;;;;;;14.30;12.83;;;10.00;99.90;;;;;;5129284;27;20243;-72
2022/11/15 09:08:38;;;;;;;13.70;12.33;;;10.10;99.90;;;;;;5129836;27;20284;-73
2022/11/15 09:11:07;;;;;;;16.10;13.43;;;10.10;99.90;;;;;;5129023;27;20205;-73
2022/11/15 09:13:34;;;;;;;14.50;12.87;;;10.20;99.90;;;;;;5129268;27;20223;-73
2022/11/15 09:16:02;;;;;;;14.27;12.50;;;10.30;99.90;;;;;;5128345;27;20672;-73
2022/11/15 09:18:29;;;;;;;14.30;12.87;;;10.30;99.90;;;;;;5129280;27;20212;-73
2022/11/15 09:20:57;;;;;;;15.17;13.37;;;10.40;99.90;;;;;;5128702;27;20337;-73
2022/11/15 09:23:25;;;;;;;15.10;13.40;;;10.40;99.90;;;;;;5115597;27;20679;-73
2022/11/15 09:25:52;;;;;;;14.10;12.60;;;10.50;99.90;;;;;;5108102;27;20316;-73
2022/11/15 09:28:20;;;;;;;13.13;11.83;;;10.50;99.90;;;;;;5150229;27;20618;-73
2022/11/15 09:30:47;;;;;;;15.63;14.00;;;10.60;99.90;;;;;;5149455;27;20211;-73
2022/11/15 09:33:14;;;;;;;16.10;12.80;;;10.60;99.90;;;;;;5149785;27;20247;-73
2022/11/15 09:35:41;;;;;;;13.90;12.40;;;10.70;99.90;;;;;;5149965;27;20296;-73
2022/11/15 09:38:09;;;;;;;14.73;12.70;;;10.70;99.90;;;;;;5137288;27;20210;-73
2022/11/15 09:40:38;;;;;;;13.00;11.70;;;10.80;99.90;;;;;;5108668;27;20226;-73
2022/11/15 09:43:25;;;;;;;14.60;13.03;;;10.90;99.90;;;;;;5108515;28;20293;-72
2022/11/15 09:46:05;;;;;;;14.53;12.97;;;10.90;99.90;;;;;;5107813;28;20198;-73
2022/11/15 09:48:50;;;;;;;13.30;11.97;;;11.00;99.90;;;;;;5108488;28;20185;-73
2022/11/15 09:51:25;;;;;;;15.23;12.43;;;11.00;99.90;;;;;;5107775;28;20221;-73
2022/11/15 09:53:59;;;;;;;15.07;13.00;;;11.10;99.90;;;;;;5108669;27;20202;-73
2022/11/15 09:56:30;;;;;;;15.00;12.37;;;11.10;99.90;;;;;;5117846;27;20765;-73
2022/11/15 09:59:05;;;;;;;14.80;13.37;;;11.20;99.90;;;;;;5129206;27;20674;-73
2022/11/15 10:01:45;;;;;;;14.50;12.73;;;11.30;99.90;;;;;;5128202;27;20336;-73
2022/11/15 10:04:12;;;;;;;14.03;12.53;;;11.30;99.90;;;;;;5128186;27;20284;-73
2022/11/15 10:06:45;;;;;;;13.63;12.33;;;11.40;99.90;;;;;;5128430;27;20251;-73
2022/11/15 10:09:17;;;;;;;14.07;12.67;;;11.50;99.90;;;;;;5128721;27;20190;-73
2022/11/15 10:11:44;;;;;;;13.10;11.80;;;11.60;99.90;;;;;;5128483;27;20846;-73
2022/11/15 10:14:16;;;;;;;16.90;12.53;;;11.60;99.90;;;;;;5128489;27;20228;-73
2022/11/15 10:17:19;;;;;;;12.87;11.53;;;11.70;99.90;;;;;;5128517;27;20297;-73
2022/11/15 10:19:57;;;;;;;12.30;11.00;;;11.80;99.90;;;;;;5128541;27;20216;-73
2022/11/15 10:22:30;;;;;;;12.67;11.27;;;11.80;99.90;;;;;;5123542;27;20204;-73
2022/11/15 10:25:19;;;;;;;12.60;11.30;;;12.00;99.90;;;;;;5107637;28;20226;-73
2022/11/15 10:27:57;;;;;;;12.50;11.20;;;12.10;99.90;;;;;;5136152;27;20283;-73
2022/11/15 10:30:30;;;;;;;13.07;11.77;;;12.10;99.90;;;;;;5148658;27;20287;-73
2022/11/15 10:32:58;;;;;;;13.00;11.23;;;12.20;99.90;;;;;;5148217;27;20227;-73
2022/11/15 10:35:27;;;;;;;13.00;10.47;;;12.30;99.90;;;;;;5115034;27;20237;-73
2022/11/15 10:38:06;;;;;;;11.17;10.17;;;12.40;99.90;;;;;;5107492;28;20239;-73
2022/11/15 10:40:33;;;;;;;11.57;10.50;;;12.50;99.90;;;;;;5107677;28;20220;-73
2022/11/15 10:43:12;;;;;;;12.93;10.30;;;12.60;99.90;;;;;;5107544;27;20216;-73
2022/11/15 10:45:39;;;;;;;12.03;10.83;;;12.70;99.90;;;;;;5113584;28;20281;-73
2022/11/15 10:48:28;;;;;;;11.90;10.70;;;12.80;99.90;;;;;;5127887;27;20248;-73
2022/11/15 10:50:56;;;;;;;11.80;10.70;;;12.90;99.90;;;;;;5123006;27;20284;-73
2022/11/15 10:53:33;;;;;;;13.03;11.70;;;13.00;99.90;;;;;;5123294;27;20576;-73
2022/11/15 10:56:04;;;;;;;12.07;10.93;;;13.10;99.90;;;;;;5109433;27;20225;-73
2022/11/15 10:58:39;;;;;;;11.97;10.60;;;13.20;99.90;;;;;;5148823;27;20185;-73
2022/11/15 11:01:15;;;;;;;11.00;9.90;;;13.30;99.90;;;;;;5147955;27;20287;-73
2022/11/15 11:03:45;;;;;;;11.30;10.20;;;13.40;99.90;;;;;;5148564;27;20710;-73
2022/11/15 11:06:15;;;;;;;10.60;9.53;;;13.50;99.90;;;;;;5148849;27;20558;-73
2022/11/15 11:08:54;;;;;;;12.10;10.80;;;13.60;99.90;;;;;;5148591;27;20204;-73
2022/11/15 11:11:20;;;;;;;11.03;10.03;;;13.60;99.90;;;;;;5148648;27;20192;-73
2022/11/15 11:13:47;;;;;;;11.33;10.23;;;13.70;99.90;;;;;;5148447;27;20679;-73
2022/11/15 11:16:41;;;;;;;12.13;10.17;;;13.80;99.90;;;;;;5148163;27;20307;-73
2022/11/15 11:19:31;;;;;;;11.53;10.43;;;13.90;99.90;;;;;;5148196;27;20224;-73
2022/11/15 11:22:06;;;;;;;12.07;9.67;;;13.90;99.90;;;;;;5123190;27;20257;-73
2022/11/15 11:24:37;;;;;;;10.73;9.63;;;14.00;99.90;;;;;;5128045;27;20358;-73
2022/11/15 11:27:21;;;;;;;12.87;9.87;;;14.10;99.90;;;;;;5137601;27;20638;-73
2022/11/15 11:30:02;;;;;;;11.23;10.20;;;14.20;99.90;;;;;;5145908;27;20918;-73
2022/11/15 11:33:10;;;;;;;11.20;9.90;;;14.30;99.90;;;;;;5128164;27;20216;-73
2022/11/15 11:35:51;;;;;;;11.37;10.40;;;14.30;99.90;;;;;;5064002;28;20768;-73
2022/11/15 11:38:35;;;;;;;11.50;10.40;;;14.40;99.90;;;;;;5118475;27;20284;-73
2022/11/15 11:41:11;;;;;;;11.17;10.03;;;14.50;99.90;;;;;;5127765;27;20308;-73
2022/11/15 11:43:50;;;;;;;11.23;9.93;;;14.50;99.90;;;;;;5128123;27;20284;-73
2022/11/15 11:46:39;;;;;;;10.17;9.17;;;14.60;99.90;;;;;;5130377;27;20236;-73
2022/11/15 11:49:11;;;;;;;11.90;10.67;;;14.60;99.90;;;;;;5131606;27;20223;-73
2022/11/15 11:51:43;;;;;;;11.90;10.53;;;14.70;99.90;;;;;;5151715;27;20195;-73
2022/11/15 11:54:15;;;;;;;11.20;10.07;;;14.70;99.90;;;;;;5152011;27;20279;-73
2022/11/15 11:56:45;;;;;;;11.13;9.97;;;14.70;99.90;;;;;;5151730;27;20295;-73
2022/11/15 11:59:22;;;;;;;11.67;9.67;;;14.80;99.90;;;;;;5151810;27;20246;-73
2022/11/15 12:01:49;;;;;;;11.87;9.40;;;14.80;99.90;;;;;;5151461;27;20252;-73
2022/11/15 12:04:20;;;;;;;10.20;9.30;;;14.90;99.90;;;;;;5151466;27;20706;-73
2022/11/15 12:06:52;;;;;;;9.37;8.37;;;14.90;99.90;;;;;;5151811;27;20300;-73
2022/11/15 12:09:24;;;;;;;9.63;8.83;;;14.90;99.90;;;;;;5151695;27;20414;-73
2022/11/15 12:11:57;;;;;;;9.60;8.67;;;15.00;99.90;;;;;;5151348;27;20193;-73
2022/11/15 12:14:34;;;;;;;9.53;8.60;;;15.00;99.90;;;;;;5151582;27;20193;-73
2022/11/15 12:17:02;;;;;;;10.30;9.40;;;15.10;99.90;;;;;;5151263;27;20221;-73
2022/11/15 12:19:30;;;;;;;9.87;8.87;;;15.20;99.90;;;;;;5151344;27;20288;-73
2022/11/15 12:22:04;;;;;;;10.20;9.07;;;15.30;99.90;;;;;;5138362;27;20229;-73
2022/11/15 12:24:35;;;;;;;9.97;9.00;;;15.30;99.90;;;;;;5110060;28;20221;-73
2022/11/15 12:27:07;;;;;;;9.77;8.87;;;15.40;99.90;;;;;;5122425;27;20240;-73
2022/11/15 12:29:39;;;;;;;9.50;8.60;;;15.50;99.90;;;;;;5130124;27;20225;-73
2022/11/15 12:32:15;;;;;;;8.40;7.63;;;15.50;99.90;;;;;;5129888;27;20289;-73
2022/11/15 12:34:47;;;;;;;9.30;8.40;;;15.50;99.90;;;;;;5130481;27;20276;-73
2022/11/15 12:37:56;;;;;;;9.27;8.43;;;15.60;99.90;;;;;;5129977;27;20201;-73
2022/11/15 12:40:58;;;;;;;8.80;7.97;;;15.70;99.90;;;;;;5109826;28;20254;-73
2022/11/15 12:43:45;;;;;;;9.10;8.27;;;15.70;99.90;;;;;;5128196;27;20296;-73
2022/11/15 12:46:14;;;;;;;9.03;8.23;;;15.80;99.90;;;;;;5129891;27;20189;-73
2022/11/15 12:48:56;;;;;;;8.97;8.07;;;15.90;99.90;;;;;;5130267;27;20239;-73
2022/11/15 12:52:07;;;;;;;9.27;8.47;;;15.90;99.90;;;;;;5149653;27;20193;-73
2022/11/15 12:55:01;;;;;;;8.97;8.23;;;16.00;99.90;;;;;;5150743;27;20257;-73
2022/11/15 12:57:43;;;;;;;8.57;7.70;;;16.00;99.90;;;;;;5149740;27;20477;-73
2022/11/15 13:00:43;;;;;;;8.57;7.87;;;15.90;99.90;;;;;;5150073;27;20264;-73
2022/11/15 13:03:25;;;;;;;9.80;8.17;;;15.70;99.90;;;;;;5144956;27;20336;-73
2022/11/15 13:06:08;;;;;;;8.47;7.77;;;15.50;99.90;;;;;;5149995;27;20193;-74
2022/11/15 13:08:48;;;;;;;8.90;8.00;;;15.40;99.90;;;;;;5150143;27;20627;-73